sensor_id;sensor_type;location;lat;lon;timestamp;P1;durP1;ratioP1;P2;durP2;ratioP2
70122;SDS011;57489;37.404;24.920;2023-12-22T00:03:54;8.65;;;3.53;;
70122;SDS011;57489;37.404;24.920;2023-12-22T00:08:58;6.13;;;2.83;;
70122;SDS011;57489;37.404;24.920;2023-12-22T00:14:00;6.95;;;3.25;;
70122;SDS011;57489;37.404;24.920;2023-12-22T00:19:02;6.63;;;2.78;;
70122;SDS011;57489;37.404;24.920;2023-12-22T00:24:06;6.37;;;3.30;;
70122;SDS011;57489;37.404;24.920;2023-12-22T00:29:08;6.20;;;2.63;;
70122;SDS011;57489;37.404;24.920;2023-12-22T00:34:10;6.43;;;2.67;;
70122;SDS011;57489;37.404;24.920;2023-12-22T00:39:13;7.85;;;3.88;;
70122;SDS011;57489;37.404;24.920;2023-12-22T00:44:16;7.95;;;3.20;;
70122;SDS011;57489;37.404;24.920;2023-12-22T00:49:18;8.17;;;2.87;;
70122;SDS011;57489;37.404;24.920;2023-12-22T00:54:23;6.85;;;3.42;;
70122;SDS011;57489;37.404;24.920;2023-12-22T00:59:25;5.78;;;2.92;;
70122;SDS011;57489;37.404;24.920;2023-12-22T01:04:27;7.47;;;3.50;;
70122;SDS011;57489;37.404;24.920;2023-12-22T01:09:31;6.88;;;3.33;;
70122;SDS011;57489;37.404;24.920;2023-12-22T01:14:33;6.53;;;3.27;;
70122;SDS011;57489;37.404;24.920;2023-12-22T01:19:35;6.53;;;2.88;;
70122;SDS011;57489;37.404;24.920;2023-12-22T01:24:39;8.23;;;2.95;;
70122;SDS011;57489;37.404;24.920;2023-12-22T01:29:43;7.10;;;3.00;;
70122;SDS011;57489;37.404;24.920;2023-12-22T01:34:45;7.00;;;3.15;;
70122;SDS011;57489;37.404;24.920;2023-12-22T01:39:48;6.60;;;3.00;;
70122;SDS011;57489;37.404;24.920;2023-12-22T01:44:50;5.68;;;2.97;;
70122;SDS011;57489;37.404;24.920;2023-12-22T01:49:52;7.13;;;2.92;;
70122;SDS011;57489;37.404;24.920;2023-12-22T01:54:56;8.50;;;3.03;;
70122;SDS011;57489;37.404;24.920;2023-12-22T01:59:58;6.88;;;3.05;;
70122;SDS011;57489;37.404;24.920;2023-12-22T02:05:00;7.90;;;2.80;;
70122;SDS011;57489;37.404;24.920;2023-12-22T02:10:05;7.93;;;2.90;;
70122;SDS011;57489;37.404;24.920;2023-12-22T02:15:09;8.02;;;2.65;;
70122;SDS011;57489;37.404;24.920;2023-12-22T02:20:11;5.83;;;3.20;;
70122;SDS011;57489;37.404;24.920;2023-12-22T02:25:15;7.40;;;2.97;;
70122;SDS011;57489;37.404;24.920;2023-12-22T02:30:19;6.88;;;2.97;;
70122;SDS011;57489;37.404;24.920;2023-12-22T02:35:27;5.17;;;2.80;;
70122;SDS011;57489;37.404;24.920;2023-12-22T02:40:33;6.60;;;2.50;;
70122;SDS011;57489;37.404;24.920;2023-12-22T02:45:37;6.05;;;2.65;;
70122;SDS011;57489;37.404;24.920;2023-12-22T02:50:40;5.83;;;2.80;;
70122;SDS011;57489;37.404;24.920;2023-12-22T02:55:43;4.78;;;2.53;;
70122;SDS011;57489;37.404;24.920;2023-12-22T03:00:45;5.67;;;2.70;;
70122;SDS011;57489;37.404;24.920;2023-12-22T03:05:47;5.90;;;2.60;;
70122;SDS011;57489;37.404;24.920;2023-12-22T03:10:51;5.00;;;2.40;;
70122;SDS011;57489;37.404;24.920;2023-12-22T03:15:53;5.43;;;2.40;;
70122;SDS011;57489;37.404;24.920;2023-12-22T03:20:55;6.10;;;2.47;;
70122;SDS011;57489;37.404;24.920;2023-12-22T03:26:02;6.80;;;2.90;;
70122;SDS011;57489;37.404;24.920;2023-12-22T03:31:04;4.63;;;2.97;;
70122;SDS011;57489;37.404;24.920;2023-12-22T03:36:07;5.07;;;2.45;;
70122;SDS011;57489;37.404;24.920;2023-12-22T03:41:11;5.30;;;3.43;;
70122;SDS011;57489;37.404;24.920;2023-12-22T03:46:13;5.10;;;2.38;;
70122;SDS011;57489;37.404;24.920;2023-12-22T03:51:15;4.55;;;2.35;;
70122;SDS011;57489;37.404;24.920;2023-12-22T03:56:18;5.40;;;2.63;;
70122;SDS011;57489;37.404;24.920;2023-12-22T04:01:20;5.57;;;2.33;;
70122;SDS011;57489;37.404;24.920;2023-12-22T04:06:22;4.82;;;2.50;;
70122;SDS011;57489;37.404;24.920;2023-12-22T04:11:26;4.53;;;2.50;;
70122;SDS011;57489;37.404;24.920;2023-12-22T04:16:28;7.07;;;2.88;;
70122;SDS011;57489;37.404;24.920;2023-12-22T04:21:30;5.13;;;2.77;;
70122;SDS011;57489;37.404;24.920;2023-12-22T04:26:33;5.38;;;2.60;;
70122;SDS011;57489;37.404;24.920;2023-12-22T04:31:35;5.28;;;2.50;;
70122;SDS011;57489;37.404;24.920;2023-12-22T04:36:37;5.23;;;2.27;;
70122;SDS011;57489;37.404;24.920;2023-12-22T04:41:41;5.88;;;2.42;;
70122;SDS011;57489;37.404;24.920;2023-12-22T04:46:43;5.87;;;2.67;;
70122;SDS011;57489;37.404;24.920;2023-12-22T04:51:45;6.00;;;3.10;;
70122;SDS011;57489;37.404;24.920;2023-12-22T04:56:48;5.40;;;3.10;;
70122;SDS011;57489;37.404;24.920;2023-12-22T05:01:51;5.43;;;2.40;;
70122;SDS011;57489;37.404;24.920;2023-12-22T05:06:53;4.90;;;2.57;;
70122;SDS011;57489;37.404;24.920;2023-12-22T05:11:57;4.90;;;2.60;;
70122;SDS011;57489;37.404;24.920;2023-12-22T05:16:59;5.57;;;2.40;;
70122;SDS011;57489;37.404;24.920;2023-12-22T05:22:01;5.03;;;2.30;;
70122;SDS011;57489;37.404;24.920;2023-12-22T05:27:05;5.38;;;2.50;;
70122;SDS011;57489;37.404;24.920;2023-12-22T05:32:08;5.00;;;1.97;;
70122;SDS011;57489;37.404;24.920;2023-12-22T05:37:10;4.40;;;2.10;;
70122;SDS011;57489;37.404;24.920;2023-12-22T05:42:13;4.90;;;2.27;;
70122;SDS011;57489;37.404;24.920;2023-12-22T05:47:16;5.30;;;2.45;;
70122;SDS011;57489;37.404;24.920;2023-12-22T05:52:18;6.65;;;2.35;;
70122;SDS011;57489;37.404;24.920;2023-12-22T05:57:21;9.87;;;2.70;;
70122;SDS011;57489;37.404;24.920;2023-12-22T06:02:24;11.93;;;2.65;;
70122;SDS011;57489;37.404;24.920;2023-12-22T06:07:26;7.67;;;3.13;;
70122;SDS011;57489;37.404;24.920;2023-12-22T06:12:30;10.57;;;3.40;;
70122;SDS011;57489;37.404;24.920;2023-12-22T06:17:32;6.45;;;2.90;;
70122;SDS011;57489;37.404;24.920;2023-12-22T06:22:34;8.33;;;2.43;;
70122;SDS011;57489;37.404;24.920;2023-12-22T06:27:37;9.85;;;2.85;;
70122;SDS011;57489;37.404;24.920;2023-12-22T06:32:39;8.07;;;2.47;;
70122;SDS011;57489;37.404;24.920;2023-12-22T06:37:42;7.20;;;2.70;;
70122;SDS011;57489;37.404;24.920;2023-12-22T06:42:45;7.38;;;2.92;;
70122;SDS011;57489;37.404;24.920;2023-12-22T06:47:47;10.67;;;3.03;;
70122;SDS011;57489;37.404;24.920;2023-12-22T06:52:49;5.90;;;2.60;;
70122;SDS011;57489;37.404;24.920;2023-12-22T06:57:53;8.02;;;2.88;;
70122;SDS011;57489;37.404;24.920;2023-12-22T07:02:55;9.07;;;2.47;;
70122;SDS011;57489;37.404;24.920;2023-12-22T07:07:57;11.57;;;3.70;;
70122;SDS011;57489;37.404;24.920;2023-12-22T07:13:00;9.77;;;3.57;;
70122;SDS011;57489;37.404;24.920;2023-12-22T07:18:03;8.63;;;2.63;;
70122;SDS011;57489;37.404;24.920;2023-12-22T07:23:05;7.03;;;2.97;;
70122;SDS011;57489;37.404;24.920;2023-12-22T07:28:09;6.77;;;3.77;;
70122;SDS011;57489;37.404;24.920;2023-12-22T07:33:11;10.13;;;3.40;;
70122;SDS011;57489;37.404;24.920;2023-12-22T07:38:13;10.93;;;3.40;;
70122;SDS011;57489;37.404;24.920;2023-12-22T07:43:16;11.67;;;3.17;;
70122;SDS011;57489;37.404;24.920;2023-12-22T07:48:18;8.07;;;2.97;;
70122;SDS011;57489;37.404;24.920;2023-12-22T07:53:20;6.55;;;3.00;;
70122;SDS011;57489;37.404;24.920;2023-12-22T07:58:24;7.50;;;2.77;;
70122;SDS011;57489;37.404;24.920;2023-12-22T08:03:26;7.05;;;3.50;;
70122;SDS011;57489;37.404;24.920;2023-12-22T08:08:28;8.10;;;2.65;;
70122;SDS011;57489;37.404;24.920;2023-12-22T08:13:32;8.43;;;3.10;;
70122;SDS011;57489;37.404;24.920;2023-12-22T08:18:35;9.48;;;4.10;;
70122;SDS011;57489;37.404;24.920;2023-12-22T08:23:37;6.47;;;3.53;;
70122;SDS011;57489;37.404;24.920;2023-12-22T08:28:40;6.67;;;2.83;;
70122;SDS011;57489;37.404;24.920;2023-12-22T08:33:42;9.48;;;3.35;;
70122;SDS011;57489;37.404;24.920;2023-12-22T08:38:45;6.67;;;3.47;;
70122;SDS011;57489;37.404;24.920;2023-12-22T08:43:48;9.57;;;3.43;;
70122;SDS011;57489;37.404;24.920;2023-12-22T08:48:52;8.82;;;4.05;;
70122;SDS011;57489;37.404;24.920;2023-12-22T08:53:54;8.57;;;3.33;;
70122;SDS011;57489;37.404;24.920;2023-12-22T08:58:57;10.45;;;3.47;;
70122;SDS011;57489;37.404;24.920;2023-12-22T09:04:00;7.07;;;3.22;;
70122;SDS011;57489;37.404;24.920;2023-12-22T09:09:02;9.20;;;3.10;;
70122;SDS011;57489;37.404;24.920;2023-12-22T09:14:06;7.28;;;3.20;;
70122;SDS011;57489;37.404;24.920;2023-12-22T09:19:09;7.50;;;3.50;;
70122;SDS011;57489;37.404;24.920;2023-12-22T09:24:11;8.47;;;3.10;;
70122;SDS011;57489;37.404;24.920;2023-12-22T09:29:15;5.53;;;3.00;;
70122;SDS011;57489;37.404;24.920;2023-12-22T09:34:17;8.33;;;3.40;;
70122;SDS011;57489;37.404;24.920;2023-12-22T09:39:19;8.57;;;3.63;;
70122;SDS011;57489;37.404;24.920;2023-12-22T09:44:23;7.10;;;3.55;;
70122;SDS011;57489;37.404;24.920;2023-12-22T09:49:26;6.57;;;2.77;;
70122;SDS011;57489;37.404;24.920;2023-12-22T09:54:28;6.95;;;3.08;;
70122;SDS011;57489;37.404;24.920;2023-12-22T09:59:33;10.63;;;3.45;;
70122;SDS011;57489;37.404;24.920;2023-12-22T10:04:37;7.53;;;2.60;;
70122;SDS011;57489;37.404;24.920;2023-12-22T10:09:39;7.65;;;3.67;;
70122;SDS011;57489;37.404;24.920;2023-12-22T10:14:43;7.82;;;2.80;;
70122;SDS011;57489;37.404;24.920;2023-12-22T10:19:46;6.70;;;2.93;;
70122;SDS011;57489;37.404;24.920;2023-12-22T10:24:48;7.07;;;3.20;;
70122;SDS011;57489;37.404;24.920;2023-12-22T10:29:54;7.03;;;3.10;;
70122;SDS011;57489;37.404;24.920;2023-12-22T10:34:57;7.00;;;2.70;;
70122;SDS011;57489;37.404;24.920;2023-12-22T10:39:59;6.72;;;3.38;;
70122;SDS011;57489;37.404;24.920;2023-12-22T10:45:03;7.30;;;2.97;;
70122;SDS011;57489;37.404;24.920;2023-12-22T10:50:07;6.30;;;2.63;;
70122;SDS011;57489;37.404;24.920;2023-12-22T10:55:09;6.45;;;2.92;;
70122;SDS011;57489;37.404;24.920;2023-12-22T11:00:13;9.03;;;3.10;;
70122;SDS011;57489;37.404;24.920;2023-12-22T11:05:17;12.63;;;4.30;;
70122;SDS011;57489;37.404;24.920;2023-12-22T11:10:22;11.23;;;4.20;;
70122;SDS011;57489;37.404;24.920;2023-12-22T11:15:26;14.23;;;3.60;;
70122;SDS011;57489;37.404;24.920;2023-12-22T11:20:30;12.30;;;3.72;;
70122;SDS011;57489;37.404;24.920;2023-12-22T11:25:36;8.07;;;3.63;;
70122;SDS011;57489;37.404;24.920;2023-12-22T11:30:53;9.60;;;3.57;;
70122;SDS011;57489;37.404;24.920;2023-12-22T11:36:05;8.73;;;3.42;;
70122;SDS011;57489;37.404;24.920;2023-12-22T11:41:09;8.17;;;3.17;;
70122;SDS011;57489;37.404;24.920;2023-12-22T11:46:17;6.65;;;2.78;;
70122;SDS011;57489;37.404;24.920;2023-12-22T11:51:19;8.43;;;3.13;;
70122;SDS011;57489;37.404;24.920;2023-12-22T11:56:21;6.53;;;2.73;;
70122;SDS011;57489;37.404;24.920;2023-12-22T12:01:34;9.07;;;3.35;;
70122;SDS011;57489;37.404;24.920;2023-12-22T12:06:46;9.77;;;4.10;;
70122;SDS011;57489;37.404;24.920;2023-12-22T12:12:09;6.53;;;3.30;;
70122;SDS011;57489;37.404;24.920;2023-12-22T12:17:15;7.53;;;3.67;;
70122;SDS011;57489;37.404;24.920;2023-12-22T12:22:20;8.47;;;3.67;;
70122;SDS011;57489;37.404;24.920;2023-12-22T12:27:25;8.68;;;3.00;;
70122;SDS011;57489;37.404;24.920;2023-12-22T12:32:28;10.10;;;3.05;;
70122;SDS011;57489;37.404;24.920;2023-12-22T12:37:31;10.70;;;2.87;;
70122;SDS011;57489;37.404;24.920;2023-12-22T12:42:33;8.98;;;3.30;;
70122;SDS011;57489;37.404;24.920;2023-12-22T12:47:39;8.15;;;3.38;;
70122;SDS011;57489;37.404;24.920;2023-12-22T12:52:41;8.30;;;3.13;;
70122;SDS011;57489;37.404;24.920;2023-12-22T12:57:43;7.40;;;3.40;;
70122;SDS011;57489;37.404;24.920;2023-12-22T13:02:47;10.13;;;2.83;;
70122;SDS011;57489;37.404;24.920;2023-12-22T13:07:49;7.97;;;2.40;;
70122;SDS011;57489;37.404;24.920;2023-12-22T13:12:51;7.43;;;3.38;;
70122;SDS011;57489;37.404;24.920;2023-12-22T13:17:55;7.57;;;2.80;;
70122;SDS011;57489;37.404;24.920;2023-12-22T13:22:58;7.97;;;2.97;;
70122;SDS011;57489;37.404;24.920;2023-12-22T13:28:00;7.45;;;2.22;;
70122;SDS011;57489;37.404;24.920;2023-12-22T13:33:04;11.37;;;2.70;;
70122;SDS011;57489;37.404;24.920;2023-12-22T13:38:06;5.07;;;2.47;;
70122;SDS011;57489;37.404;24.920;2023-12-22T13:43:09;5.60;;;2.33;;
70122;SDS011;57489;37.404;24.920;2023-12-22T13:48:15;5.70;;;2.30;;
70122;SDS011;57489;37.404;24.920;2023-12-22T13:53:17;7.70;;;2.83;;
70122;SDS011;57489;37.404;24.920;2023-12-22T13:58:19;8.40;;;3.00;;
70122;SDS011;57489;37.404;24.920;2023-12-22T14:03:23;9.03;;;3.40;;
70122;SDS011;57489;37.404;24.920;2023-12-22T14:08:25;7.10;;;3.07;;
70122;SDS011;57489;37.404;24.920;2023-12-22T14:13:27;6.13;;;3.30;;
70122;SDS011;57489;37.404;24.920;2023-12-22T14:18:30;6.33;;;2.90;;
70122;SDS011;57489;37.404;24.920;2023-12-22T14:23:32;5.87;;;3.03;;
70122;SDS011;57489;37.404;24.920;2023-12-22T14:28:35;8.65;;;3.67;;
70122;SDS011;57489;37.404;24.920;2023-12-22T14:33:38;6.90;;;3.27;;
70122;SDS011;57489;37.404;24.920;2023-12-22T14:38:40;6.97;;;2.97;;
70122;SDS011;57489;37.404;24.920;2023-12-22T14:43:42;5.28;;;2.97;;
70122;SDS011;57489;37.404;24.920;2023-12-22T14:48:46;6.23;;;3.10;;
70122;SDS011;57489;37.404;24.920;2023-12-22T14:53:48;7.93;;;3.15;;
70122;SDS011;57489;37.404;24.920;2023-12-22T14:58:50;5.63;;;2.90;;
70122;SDS011;57489;37.404;24.920;2023-12-22T15:03:54;8.05;;;2.80;;
70122;SDS011;57489;37.404;24.920;2023-12-22T15:08:56;5.05;;;2.30;;
70122;SDS011;57489;37.404;24.920;2023-12-22T15:13:59;6.43;;;3.03;;
70122;SDS011;57489;37.404;24.920;2023-12-22T15:19:03;6.93;;;2.75;;
70122;SDS011;57489;37.404;24.920;2023-12-22T15:24:05;7.22;;;2.60;;
70122;SDS011;57489;37.404;24.920;2023-12-22T15:29:08;5.17;;;2.40;;
70122;SDS011;57489;37.404;24.920;2023-12-22T15:34:11;6.82;;;3.30;;
70122;SDS011;57489;37.404;24.920;2023-12-22T15:39:14;4.93;;;2.50;;
70122;SDS011;57489;37.404;24.920;2023-12-22T15:44:16;5.03;;;2.63;;
70122;SDS011;57489;37.404;24.920;2023-12-22T15:49:20;10.30;;;2.35;;
70122;SDS011;57489;37.404;24.920;2023-12-22T15:54:22;6.77;;;2.73;;
70122;SDS011;57489;37.404;24.920;2023-12-22T15:59:24;4.93;;;2.08;;
70122;SDS011;57489;37.404;24.920;2023-12-22T16:04:27;4.95;;;2.35;;
70122;SDS011;57489;37.404;24.920;2023-12-22T16:09:33;6.50;;;3.10;;
70122;SDS011;57489;37.404;24.920;2023-12-22T16:14:35;6.90;;;2.83;;
70122;SDS011;57489;37.404;24.920;2023-12-22T16:19:39;9.20;;;3.13;;
70122;SDS011;57489;37.404;24.920;2023-12-22T16:24:41;18.83;;;4.53;;
70122;SDS011;57489;37.404;24.920;2023-12-22T16:29:43;12.63;;;3.92;;
70122;SDS011;57489;37.404;24.920;2023-12-22T16:34:48;14.27;;;3.73;;
70122;SDS011;57489;37.404;24.920;2023-12-22T16:39:50;12.57;;;3.93;;
70122;SDS011;57489;37.404;24.920;2023-12-22T16:44:53;11.95;;;3.65;;
70122;SDS011;57489;37.404;24.920;2023-12-22T16:49:58;10.20;;;3.70;;
70122;SDS011;57489;37.404;24.920;2023-12-22T16:55:00;10.83;;;3.23;;
70122;SDS011;57489;37.404;24.920;2023-12-22T17:00:03;8.05;;;3.17;;
70122;SDS011;57489;37.404;24.920;2023-12-22T17:05:07;7.80;;;3.00;;
70122;SDS011;57489;37.404;24.920;2023-12-22T17:10:09;8.47;;;3.40;;
70122;SDS011;57489;37.404;24.920;2023-12-22T17:15:12;8.30;;;2.85;;
70122;SDS011;57489;37.404;24.920;2023-12-22T17:20:15;6.93;;;2.70;;
70122;SDS011;57489;37.404;24.920;2023-12-22T17:25:17;10.40;;;3.07;;
70122;SDS011;57489;37.404;24.920;2023-12-22T17:30:19;7.95;;;2.78;;
70122;SDS011;57489;37.404;24.920;2023-12-22T17:35:26;7.37;;;2.43;;
70122;SDS011;57489;37.404;24.920;2023-12-22T17:40:28;6.73;;;2.33;;
70122;SDS011;57489;37.404;24.920;2023-12-22T17:45:30;6.38;;;2.75;;
70122;SDS011;57489;37.404;24.920;2023-12-22T17:50:34;7.00;;;2.63;;
70122;SDS011;57489;37.404;24.920;2023-12-22T17:55:36;6.10;;;2.67;;
70122;SDS011;57489;37.404;24.920;2023-12-22T18:00:38;9.85;;;3.63;;
70122;SDS011;57489;37.404;24.920;2023-12-22T18:05:42;6.50;;;2.47;;
70122;SDS011;57489;37.404;24.920;2023-12-22T18:10:44;6.50;;;2.33;;
70122;SDS011;57489;37.404;24.920;2023-12-22T18:15:46;7.45;;;2.40;;
70122;SDS011;57489;37.404;24.920;2023-12-22T18:20:50;7.27;;;2.97;;
70122;SDS011;57489;37.404;24.920;2023-12-22T18:25:52;6.40;;;2.60;;
70122;SDS011;57489;37.404;24.920;2023-12-22T18:30:54;7.15;;;3.00;;
70122;SDS011;57489;37.404;24.920;2023-12-22T18:35:57;9.60;;;2.83;;
70122;SDS011;57489;37.404;24.920;2023-12-22T18:41:00;5.18;;;2.58;;
70122;SDS011;57489;37.404;24.920;2023-12-22T18:46:03;6.57;;;2.83;;
70122;SDS011;57489;37.404;24.920;2023-12-22T18:51:07;6.23;;;2.43;;
70122;SDS011;57489;37.404;24.920;2023-12-22T18:56:18;7.10;;;2.85;;
70122;SDS011;57489;37.404;24.920;2023-12-22T19:01:21;8.63;;;2.87;;
70122;SDS011;57489;37.404;24.920;2023-12-22T19:06:25;6.20;;;2.30;;
70122;SDS011;57489;37.404;24.920;2023-12-22T19:11:27;5.65;;;2.90;;
70122;SDS011;57489;37.404;24.920;2023-12-22T19:16:29;7.30;;;2.77;;
70122;SDS011;57489;37.404;24.920;2023-12-22T19:21:33;7.60;;;2.73;;
70122;SDS011;57489;37.404;24.920;2023-12-22T19:26:36;6.55;;;2.92;;
70122;SDS011;57489;37.404;24.920;2023-12-22T19:31:40;7.13;;;2.70;;
70122;SDS011;57489;37.404;24.920;2023-12-22T19:36:43;6.67;;;2.53;;
70122;SDS011;57489;37.404;24.920;2023-12-22T19:41:47;6.65;;;2.78;;
70122;SDS011;57489;37.404;24.920;2023-12-22T19:46:49;10.10;;;2.60;;
70122;SDS011;57489;37.404;24.920;2023-12-22T19:51:53;7.20;;;2.40;;
70122;SDS011;57489;37.404;24.920;2023-12-22T19:56:55;7.53;;;2.90;;
70122;SDS011;57489;37.404;24.920;2023-12-22T20:01:57;4.90;;;2.13;;
70122;SDS011;57489;37.404;24.920;2023-12-22T20:07:01;5.43;;;2.60;;
70122;SDS011;57489;37.404;24.920;2023-12-22T20:12:03;5.55;;;2.50;;
70122;SDS011;57489;37.404;24.920;2023-12-22T20:17:06;4.47;;;2.43;;
70122;SDS011;57489;37.404;24.920;2023-12-22T20:22:09;6.53;;;2.50;;
70122;SDS011;57489;37.404;24.920;2023-12-22T20:27:11;6.32;;;2.53;;
70122;SDS011;57489;37.404;24.920;2023-12-22T20:32:13;5.30;;;2.20;;
70122;SDS011;57489;37.404;24.920;2023-12-22T20:37:16;7.20;;;2.50;;
70122;SDS011;57489;37.404;24.920;2023-12-22T20:42:18;7.97;;;2.60;;
70122;SDS011;57489;37.404;24.920;2023-12-22T20:47:20;4.53;;;2.23;;
70122;SDS011;57489;37.404;24.920;2023-12-22T20:52:24;5.07;;;2.10;;
70122;SDS011;57489;37.404;24.920;2023-12-22T20:57:26;4.22;;;2.17;;
70122;SDS011;57489;37.404;24.920;2023-12-22T21:02:28;6.03;;;2.40;;
70122;SDS011;57489;37.404;24.920;2023-12-22T21:07:33;6.03;;;2.10;;
70122;SDS011;57489;37.404;24.920;2023-12-22T21:12:36;5.38;;;1.98;;
70122;SDS011;57489;37.404;24.920;2023-12-22T21:17:38;5.87;;;2.40;;
70122;SDS011;57489;37.404;24.920;2023-12-22T21:22:43;5.38;;;2.60;;
70122;SDS011;57489;37.404;24.920;2023-12-22T21:27:45;5.68;;;2.47;;
70122;SDS011;57489;37.404;24.920;2023-12-22T21:32:48;6.50;;;2.13;;
70122;SDS011;57489;37.404;24.920;2023-12-22T21:37:52;5.97;;;2.50;;
70122;SDS011;57489;37.404;24.920;2023-12-22T21:42:54;4.53;;;2.47;;
70122;SDS011;57489;37.404;24.920;2023-12-22T21:47:56;5.23;;;2.13;;
70122;SDS011;57489;37.404;24.920;2023-12-22T21:53:00;4.43;;;2.25;;
70122;SDS011;57489;37.404;24.920;2023-12-22T21:58:02;5.87;;;2.03;;
70122;SDS011;57489;37.404;24.920;2023-12-22T22:03:05;4.93;;;2.50;;
70122;SDS011;57489;37.404;24.920;2023-12-22T22:08:08;4.47;;;2.30;;
70122;SDS011;57489;37.404;24.920;2023-12-22T22:13:10;4.43;;;1.90;;
70122;SDS011;57489;37.404;24.920;2023-12-22T22:18:12;5.50;;;2.25;;
70122;SDS011;57489;37.404;24.920;2023-12-22T22:23:16;4.57;;;2.22;;
70122;SDS011;57489;37.404;24.920;2023-12-22T22:28:18;6.53;;;1.90;;
70122;SDS011;57489;37.404;24.920;2023-12-22T22:33:20;7.75;;;2.58;;
70122;SDS011;57489;37.404;24.920;2023-12-22T22:38:23;4.43;;;2.00;;
70122;SDS011;57489;37.404;24.920;2023-12-22T22:43:26;7.83;;;2.17;;
70122;SDS011;57489;37.404;24.920;2023-12-22T22:48:28;5.50;;;2.40;;
70122;SDS011;57489;37.404;24.920;2023-12-22T22:53:31;5.97;;;2.50;;
70122;SDS011;57489;37.404;24.920;2023-12-22T22:58:33;4.20;;;1.90;;
70122;SDS011;57489;37.404;24.920;2023-12-22T23:03:35;6.70;;;2.72;;
70122;SDS011;57489;37.404;24.920;2023-12-22T23:08:39;7.73;;;2.40;;
70122;SDS011;57489;37.404;24.920;2023-12-22T23:13:41;6.17;;;2.70;;
70122;SDS011;57489;37.404;24.920;2023-12-22T23:18:43;5.95;;;2.60;;
70122;SDS011;57489;37.404;24.920;2023-12-22T23:23:46;4.73;;;2.07;;
70122;SDS011;57489;37.404;24.920;2023-12-22T23:28:48;5.15;;;2.40;;
70122;SDS011;57489;37.404;24.920;2023-12-22T23:33:50;4.82;;;1.98;;
70122;SDS011;57489;37.404;24.920;2023-12-22T23:38:54;3.87;;;1.83;;
70122;SDS011;57489;37.404;24.920;2023-12-22T23:43:56;4.88;;;2.33;;
70122;SDS011;57489;37.404;24.920;2023-12-22T23:48:58;5.53;;;2.10;;
70122;SDS011;57489;37.404;24.920;2023-12-22T23:54:01;6.03;;;2.47;;
70122;SDS011;57489;37.404;24.920;2023-12-22T23:59:04;6.18;;;2.95;;
